Toivola, Minnesota
Current Conditions -  °F | °C
As of 11:53 PM on Friday 19 Dec 2014 (Local Time) from KHIB Reporting Station
Light Snow Light Snow  
Wind Chill: 17°   Ceiling: 600
Heat Index: 25°   Visibility: 4mi
Dew Point: 22°   Wind: 7mph
Humidity: 88%   Direction: 150°SSE
Pressure: 30.09"   Gusts: NA
Location:  47.1169°N, 92.8519°W
Report Text: KHIB 200553Z AUTO 15006KT 4SM -SN BR OVC006 M04/M06 A3009 RMK AO2 SNB05 CIG 005V010 SLP213 P0000 60000 I6000 T10391056 11039 21044 410391072 57009
Loading
Personal Weather Stations






























Interactive Weather Map New forecast layout! Learn more

10-Day Weather Forecast

Advertisements
Track Severe Weather on mobile